Jamestown, Missouri
Current Conditions -  °F | °C
As of 1:54 PM on Sunday 23 Nov 2014 (Local Time) from KCOU Reporting Station
Light Rain Light Rain  
Wind Chill: 12°   Ceiling: 500
Heat Index: 12°   Visibility: 1.5mi
Dew Point: 12°   Wind: 8mph
Humidity: 100%   Direction: 160°SSE
Pressure: 29.38"   Gusts: NA
Location:  38.77°N, 92.48°W
Report Text: KCOU 231954Z 16007KT 1 1/2SM -RA BR OVC005 12/12 A2938 RMK AO2 RAB25 SLP946 P0002 T01220122 $
Loading
Personal Weather Stations






























Interactive Weather Map New forecast layout! Learn more

10-Day Weather Forecast

Advertisements
Track Severe Weather on mobile